sensor_id;sensor_type;location;lat;lon;timestamp;pressure;altitude;pressure_sealevel;temperature;humidity
72677;BME280;60755;51.374;10.662;2024-02-16T00:02:07;97042.19;;;9.34;97.87
72677;BME280;60755;51.374;10.662;2024-02-16T00:04:34;97050.38;;;9.38;98.04
72677;BME280;60755;51.374;10.662;2024-02-16T00:07:02;97060.66;;;9.39;98.59
72677;BME280;60755;51.374;10.662;2024-02-16T00:09:29;97057.75;;;9.52;97.63
72677;BME280;60755;51.374;10.662;2024-02-16T00:11:56;97058.66;;;9.58;97.82
72677;BME280;60755;51.374;10.662;2024-02-16T00:14:23;97051.22;;;9.67;97.90
72677;BME280;60755;51.374;10.662;2024-02-16T00:16:51;97059.63;;;9.69;97.57
72677;BME280;60755;51.374;10.662;2024-02-16T00:19:19;97045.03;;;9.73;97.23
72677;BME280;60755;51.374;10.662;2024-02-16T00:21:48;97045.03;;;9.73;96.32
72677;BME280;60755;51.374;10.662;2024-02-16T00:24:17;97045.16;;;9.66;97.04
72677;BME280;60755;51.374;10.662;2024-02-16T00:26:44;97048.47;;;9.62;96.63
72677;BME280;60755;51.374;10.662;2024-02-16T00:29:12;97047.97;;;9.36;97.95
72677;BME280;60755;51.374;10.662;2024-02-16T00:31:39;97047.63;;;9.44;97.57
72677;BME280;60755;51.374;10.662;2024-02-16T00:34:06;97052.63;;;9.46;97.09
72677;BME280;60755;51.374;10.662;2024-02-16T00:36:35;97044.50;;;9.59;97.34
72677;BME280;60755;51.374;10.662;2024-02-16T00:39:03;97045.53;;;9.58;96.72
72677;BME280;60755;51.374;10.662;2024-02-16T00:41:30;97044.69;;;9.69;96.69
72677;BME280;60755;51.374;10.662;2024-02-16T00:43:57;97038.75;;;9.74;95.62
72677;BME280;60755;51.374;10.662;2024-02-16T00:46:24;97035.94;;;9.64;95.89
72677;BME280;60755;51.374;10.662;2024-02-16T00:48:52;97039.81;;;9.61;96.06
72677;BME280;60755;51.374;10.662;2024-02-16T00:51:20;97033.69;;;9.56;96.70
72677;BME280;60755;51.374;10.662;2024-02-16T00:53:50;97032.91;;;9.55;96.92
72677;BME280;60755;51.374;10.662;2024-02-16T00:56:18;97021.94;;;9.58;96.70
72677;BME280;60755;51.374;10.662;2024-02-16T00:58:45;97018.75;;;9.56;96.11
72677;BME280;60755;51.374;10.662;2024-02-16T01:01:13;97027.00;;;9.36;96.76
72677;BME280;60755;51.374;10.662;2024-02-16T01:03:40;97012.41;;;9.29;98.79
72677;BME280;60755;51.374;10.662;2024-02-16T01:06:08;97017.66;;;9.29;96.90
72677;BME280;60755;51.374;10.662;2024-02-16T01:08:34;97021.13;;;9.17;99.42
72677;BME280;60755;51.374;10.662;2024-02-16T01:11:03;97025.78;;;9.27;98.46
72677;BME280;60755;51.374;10.662;2024-02-16T01:13:31;97019.72;;;9.27;99.39
72677;BME280;60755;51.374;10.662;2024-02-16T01:15:58;97024.38;;;9.36;99.05
72677;BME280;60755;51.374;10.662;2024-02-16T01:18:27;97015.34;;;9.44;98.71
72677;BME280;60755;51.374;10.662;2024-02-16T01:20:55;97019.91;;;9.48;98.38
72677;BME280;60755;51.374;10.662;2024-02-16T01:23:22;97016.81;;;9.51;97.53
72677;BME280;60755;51.374;10.662;2024-02-16T01:25:49;97022.06;;;9.51;97.98
72677;BME280;60755;51.374;10.662;2024-02-16T01:28:18;97023.34;;;9.49;97.17
72677;BME280;60755;51.374;10.662;2024-02-16T01:30:45;97019.19;;;9.53;97.61
72677;BME280;60755;51.374;10.662;2024-02-16T01:33:13;97023.78;;;9.46;97.57
72677;BME280;60755;51.374;10.662;2024-02-16T01:35:40;97012.91;;;9.66;97.71
72677;BME280;60755;51.374;10.662;2024-02-16T01:38:07;97018.31;;;9.76;96.65
72677;BME280;60755;51.374;10.662;2024-02-16T01:40:35;97027.22;;;9.75;96.09
72677;BME280;60755;51.374;10.662;2024-02-16T01:43:02;97022.78;;;9.75;96.13
72677;BME280;60755;51.374;10.662;2024-02-16T01:45:31;97015.63;;;9.71;95.74
72677;BME280;60755;51.374;10.662;2024-02-16T01:47:58;97024.19;;;9.66;95.51
72677;BME280;60755;51.374;10.662;2024-02-16T01:50:26;97022.91;;;9.69;96.58
72677;BME280;60755;51.374;10.662;2024-02-16T01:52:55;97031.50;;;9.64;96.79
72677;BME280;60755;51.374;10.662;2024-02-16T01:55:23;97024.66;;;9.63;96.57
72677;BME280;60755;51.374;10.662;2024-02-16T01:57:57;97024.19;;;9.66;96.14
72677;BME280;60755;51.374;10.662;2024-02-16T02:00:25;97016.88;;;9.68;96.23
72677;BME280;60755;51.374;10.662;2024-02-16T02:02:53;97018.38;;;9.64;96.56
72677;BME280;60755;51.374;10.662;2024-02-16T02:05:20;97010.16;;;9.61;95.83
72677;BME280;60755;51.374;10.662;2024-02-16T02:07:48;97006.50;;;9.62;95.77
72677;BME280;60755;51.374;10.662;2024-02-16T02:10:15;97006.00;;;9.48;96.69
72677;BME280;60755;51.374;10.662;2024-02-16T02:12:42;97006.78;;;9.48;97.07
72677;BME280;60755;51.374;10.662;2024-02-16T02:15:10;97005.34;;;9.29;96.77
72677;BME280;60755;51.374;10.662;2024-02-16T02:17:37;97007.66;;;9.25;98.17
72677;BME280;60755;51.374;10.662;2024-02-16T02:20:07;97006.31;;;9.23;99.22
72677;BME280;60755;51.374;10.662;2024-02-16T02:22:38;96997.59;;;9.34;98.28
72677;BME280;60755;51.374;10.662;2024-02-16T02:25:06;96996.69;;;9.40;97.26
72677;BME280;60755;51.374;10.662;2024-02-16T02:27:36;96996.09;;;9.38;97.37
72677;BME280;60755;51.374;10.662;2024-02-16T02:30:05;96993.16;;;9.35;97.17
72677;BME280;60755;51.374;10.662;2024-02-16T02:32:32;96992.25;;;9.29;96.68
72677;BME280;60755;51.374;10.662;2024-02-16T02:35:00;96987.00;;;9.29;97.78
72677;BME280;60755;51.374;10.662;2024-02-16T02:37:27;96983.94;;;9.32;98.35
72677;BME280;60755;51.374;10.662;2024-02-16T02:39:56;96975.94;;;9.27;97.24
72677;BME280;60755;51.374;10.662;2024-02-16T02:42:23;96971.97;;;9.24;97.76
72677;BME280;60755;51.374;10.662;2024-02-16T02:44:51;96974.59;;;9.24;97.75
72677;BME280;60755;51.374;10.662;2024-02-16T02:47:18;96976.78;;;9.16;97.76
72677;BME280;60755;51.374;10.662;2024-02-16T02:49:45;96974.47;;;9.31;98.34
72677;BME280;60755;51.374;10.662;2024-02-16T02:52:12;96977.72;;;9.38;97.80
72677;BME280;60755;51.374;10.662;2024-02-16T02:54:40;96975.09;;;9.38;97.18
72677;BME280;60755;51.374;10.662;2024-02-16T02:57:09;96970.91;;;9.37;97.28
72677;BME280;60755;51.374;10.662;2024-02-16T02:59:36;96970.69;;;9.39;97.33
72677;BME280;60755;51.374;10.662;2024-02-16T03:02:03;96960.78;;;9.29;97.44
72677;BME280;60755;51.374;10.662;2024-02-16T03:04:30;96967.09;;;9.05;98.76
72677;BME280;60755;51.374;10.662;2024-02-16T03:06:57;96967.94;;;8.93;99.34
72677;BME280;60755;51.374;10.662;2024-02-16T03:09:25;96961.06;;;9.16;99.48
72677;BME280;60755;51.374;10.662;2024-02-16T03:11:52;96967.88;;;9.17;97.92
72677;BME280;60755;51.374;10.662;2024-02-16T03:14:20;96966.38;;;9.21;98.69
72677;BME280;60755;51.374;10.662;2024-02-16T03:16:48;96964.25;;;9.18;97.90
72677;BME280;60755;51.374;10.662;2024-02-16T03:19:15;96953.56;;;9.08;98.81
72677;BME280;60755;51.374;10.662;2024-02-16T03:21:42;96931.25;;;8.93;100.00
72677;BME280;60755;51.374;10.662;2024-02-16T03:24:10;96931.38;;;8.87;98.97
72677;BME280;60755;51.374;10.662;2024-02-16T03:26:37;96937.09;;;8.84;100.00
72677;BME280;60755;51.374;10.662;2024-02-16T03:29:04;96947.47;;;8.67;100.00
72677;BME280;60755;51.374;10.662;2024-02-16T03:31:34;96948.72;;;8.76;100.00
72677;BME280;60755;51.374;10.662;2024-02-16T03:34:01;96958.00;;;8.95;100.00
72677;BME280;60755;51.374;10.662;2024-02-16T03:36:29;96953.75;;;9.18;100.00
72677;BME280;60755;51.374;10.662;2024-02-16T03:38:56;96953.69;;;9.41;99.17
72677;BME280;60755;51.374;10.662;2024-02-16T03:41:24;96955.63;;;9.34;97.13
72677;BME280;60755;51.374;10.662;2024-02-16T03:43:51;96962.84;;;9.27;96.76
72677;BME280;60755;51.374;10.662;2024-02-16T03:46:20;96957.59;;;9.27;97.41
72677;BME280;60755;51.374;10.662;2024-02-16T03:48:48;96954.97;;;9.27;97.65
72677;BME280;60755;51.374;10.662;2024-02-16T03:51:15;96946.56;;;9.25;96.73
72677;BME280;60755;51.374;10.662;2024-02-16T03:53:43;96947.09;;;8.87;99.85
72677;BME280;60755;51.374;10.662;2024-02-16T03:56:11;96956.97;;;9.08;98.46
72677;BME280;60755;51.374;10.662;2024-02-16T03:58:38;96950.09;;;9.19;98.26
72677;BME280;60755;51.374;10.662;2024-02-16T04:01:05;96949.63;;;9.22;98.34
72677;BME280;60755;51.374;10.662;2024-02-16T04:03:33;96947.91;;;9.28;97.90
72677;BME280;60755;51.374;10.662;2024-02-16T04:06:02;96942.06;;;9.37;98.21
72677;BME280;60755;51.374;10.662;2024-02-16T04:08:30;96940.47;;;9.36;97.82
72677;BME280;60755;51.374;10.662;2024-02-16T04:10:58;96945.03;;;9.29;98.13
72677;BME280;60755;51.374;10.662;2024-02-16T04:13:25;96938.31;;;9.33;97.31
72677;BME280;60755;51.374;10.662;2024-02-16T04:15:52;96936.72;;;9.32;97.41
72677;BME280;60755;51.374;10.662;2024-02-16T04:18:20;96945.72;;;9.36;98.06
72677;BME280;60755;51.374;10.662;2024-02-16T04:20:47;96937.47;;;9.44;97.86
72677;BME280;60755;51.374;10.662;2024-02-16T04:23:16;96930.81;;;9.53;97.41
72677;BME280;60755;51.374;10.662;2024-02-16T04:25:43;96927.88;;;9.50;96.99
72677;BME280;60755;51.374;10.662;2024-02-16T04:28:10;96929.91;;;9.31;97.67
72677;BME280;60755;51.374;10.662;2024-02-16T04:30:37;96932.59;;;9.36;97.29
72677;BME280;60755;51.374;10.662;2024-02-16T04:33:04;96937.34;;;9.68;96.98
72677;BME280;60755;51.374;10.662;2024-02-16T04:35:32;96941.19;;;9.77;96.15
72677;BME280;60755;51.374;10.662;2024-02-16T04:37:59;96935.38;;;9.75;96.45
72677;BME280;60755;51.374;10.662;2024-02-16T04:40:28;96939.75;;;9.69;96.01
72677;BME280;60755;51.374;10.662;2024-02-16T04:42:55;96937.31;;;9.79;95.95
72677;BME280;60755;51.374;10.662;2024-02-16T04:45:23;96932.53;;;9.76;96.07
72677;BME280;60755;51.374;10.662;2024-02-16T04:47:50;96930.75;;;9.65;94.42
72677;BME280;60755;51.374;10.662;2024-02-16T04:50:18;96933.91;;;9.50;96.09
72677;BME280;60755;51.374;10.662;2024-02-16T04:52:46;96939.91;;;9.34;96.74
72677;BME280;60755;51.374;10.662;2024-02-16T04:55:14;96933.72;;;9.40;96.63
72677;BME280;60755;51.374;10.662;2024-02-16T04:57:42;96936.84;;;9.25;96.92
72677;BME280;60755;51.374;10.662;2024-02-16T05:00:11;96938.50;;;9.15;99.16
72677;BME280;60755;51.374;10.662;2024-02-16T05:02:38;96938.34;;;9.21;98.39
72677;BME280;60755;51.374;10.662;2024-02-16T05:05:06;96943.75;;;9.15;98.40
72677;BME280;60755;51.374;10.662;2024-02-16T05:07:33;96941.19;;;9.32;98.36
72677;BME280;60755;51.374;10.662;2024-02-16T05:10:02;96939.81;;;9.29;98.15
72677;BME280;60755;51.374;10.662;2024-02-16T05:12:29;96933.91;;;9.22;98.40
72677;BME280;60755;51.374;10.662;2024-02-16T05:14:58;96937.53;;;9.33;98.46
72677;BME280;60755;51.374;10.662;2024-02-16T05:17:26;96927.91;;;9.38;97.76
72677;BME280;60755;51.374;10.662;2024-02-16T05:19:53;96930.31;;;9.40;98.67
72677;BME280;60755;51.374;10.662;2024-02-16T05:22:21;96931.19;;;9.45;97.78
72677;BME280;60755;51.374;10.662;2024-02-16T05:24:48;96920.91;;;9.56;96.78
72677;BME280;60755;51.374;10.662;2024-02-16T05:27:15;96909.66;;;9.43;97.86
72677;BME280;60755;51.374;10.662;2024-02-16T05:29:43;96912.94;;;9.50;98.25
72677;BME280;60755;51.374;10.662;2024-02-16T05:32:11;96914.97;;;9.32;99.72
72677;BME280;60755;51.374;10.662;2024-02-16T05:34:39;96916.03;;;9.47;98.25
72677;BME280;60755;51.374;10.662;2024-02-16T05:37:06;96920.84;;;9.39;97.53
72677;BME280;60755;51.374;10.662;2024-02-16T05:39:36;96925.09;;;9.57;96.83
72677;BME280;60755;51.374;10.662;2024-02-16T05:42:19;96926.09;;;9.84;95.25
72677;BME280;60755;51.374;10.662;2024-02-16T05:44:48;96918.31;;;9.89;94.72
72677;BME280;60755;51.374;10.662;2024-02-16T05:47:16;96922.53;;;9.90;95.40
72677;BME280;60755;51.374;10.662;2024-02-16T05:49:45;96921.97;;;9.88;95.49
72677;BME280;60755;51.374;10.662;2024-02-16T05:52:13;96912.72;;;10.02;94.10
72677;BME280;60755;51.374;10.662;2024-02-16T05:54:47;96914.81;;;10.00;94.41
72677;BME280;60755;51.374;10.662;2024-02-16T05:57:15;96908.75;;;10.00;93.57
72677;BME280;60755;51.374;10.662;2024-02-16T05:59:44;96909.09;;;10.03;93.88
72677;BME280;60755;51.374;10.662;2024-02-16T06:02:12;96900.63;;;10.01;93.36
72677;BME280;60755;51.374;10.662;2024-02-16T06:04:41;96909.31;;;10.02;93.85
72677;BME280;60755;51.374;10.662;2024-02-16T06:07:08;96912.66;;;9.97;94.04
72677;BME280;60755;51.374;10.662;2024-02-16T06:09:37;96916.25;;;9.91;94.66
72677;BME280;60755;51.374;10.662;2024-02-16T06:12:05;96912.72;;;9.86;94.63
72677;BME280;60755;51.374;10.662;2024-02-16T06:14:33;96913.06;;;9.89;93.59
72677;BME280;60755;51.374;10.662;2024-02-16T06:17:00;96920.19;;;9.77;94.06
72677;BME280;60755;51.374;10.662;2024-02-16T06:19:28;96920.28;;;9.82;94.18
72677;BME280;60755;51.374;10.662;2024-02-16T06:21:57;96915.25;;;9.64;95.21
72677;BME280;60755;51.374;10.662;2024-02-16T06:24:24;96917.00;;;9.58;95.84
72677;BME280;60755;51.374;10.662;2024-02-16T06:26:52;96914.13;;;9.60;95.47
72677;BME280;60755;51.374;10.662;2024-02-16T06:29:19;96921.06;;;9.66;95.65
72677;BME280;60755;51.374;10.662;2024-02-16T06:31:47;96927.34;;;9.65;94.62
72677;BME280;60755;51.374;10.662;2024-02-16T06:34:14;96938.50;;;9.72;95.44
72677;BME280;60755;51.374;10.662;2024-02-16T06:36:42;96939.16;;;9.79;94.37
72677;BME280;60755;51.374;10.662;2024-02-16T06:39:11;96940.66;;;9.92;94.25
72677;BME280;60755;51.374;10.662;2024-02-16T06:41:42;96937.72;;;9.88;94.44
72677;BME280;60755;51.374;10.662;2024-02-16T06:44:10;96949.47;;;10.02;93.71
72677;BME280;60755;51.374;10.662;2024-02-16T06:46:37;96946.78;;;10.14;92.96
72677;BME280;60755;51.374;10.662;2024-02-16T06:49:04;96952.63;;;10.33;92.18
72677;BME280;60755;51.374;10.662;2024-02-16T06:51:32;96956.69;;;10.24;92.23
72677;BME280;60755;51.374;10.662;2024-02-16T06:53:59;96957.59;;;10.18;93.12
72677;BME280;60755;51.374;10.662;2024-02-16T06:56:28;96951.91;;;10.21;92.49
72677;BME280;60755;51.374;10.662;2024-02-16T06:58:55;96954.28;;;10.39;91.03
72677;BME280;60755;51.374;10.662;2024-02-16T07:01:22;96947.69;;;10.53;90.81
72677;BME280;60755;51.374;10.662;2024-02-16T07:03:49;96949.03;;;10.39;91.31
72677;BME280;60755;51.374;10.662;2024-02-16T07:06:16;96945.19;;;10.63;90.54
72677;BME280;60755;51.374;10.662;2024-02-16T07:08:44;96946.31;;;10.68;90.91
72677;BME280;60755;51.374;10.662;2024-02-16T07:11:11;96940.97;;;10.62;90.47
72677;BME280;60755;51.374;10.662;2024-02-16T07:13:40;96941.94;;;10.95;89.15
72677;BME280;60755;51.374;10.662;2024-02-16T07:16:08;96933.06;;;10.79;89.88
72677;BME280;60755;51.374;10.662;2024-02-16T07:18:36;96937.63;;;10.89;90.60
72677;BME280;60755;51.374;10.662;2024-02-16T07:21:03;96942.34;;;10.87;89.93
72677;BME280;60755;51.374;10.662;2024-02-16T07:23:31;96943.50;;;10.96;89.77
72677;BME280;60755;51.374;10.662;2024-02-16T07:25:58;96941.69;;;11.18;89.11
72677;BME280;60755;51.374;10.662;2024-02-16T07:28:25;96944.56;;;11.17;89.34
72677;BME280;60755;51.374;10.662;2024-02-16T07:30:54;96939.91;;;11.24;89.06
72677;BME280;60755;51.374;10.662;2024-02-16T07:33:22;96934.28;;;11.15;89.39
72677;BME280;60755;51.374;10.662;2024-02-16T07:35:50;96923.44;;;11.34;89.21
72677;BME280;60755;51.374;10.662;2024-02-16T07:38:18;96929.94;;;11.04;90.34
72677;BME280;60755;51.374;10.662;2024-02-16T07:40:47;96922.97;;;11.15;90.88
72677;BME280;60755;51.374;10.662;2024-02-16T07:43:16;96932.84;;;11.30;89.80
72677;BME280;60755;51.374;10.662;2024-02-16T07:45:44;96931.81;;;11.31;89.36
72677;BME280;60755;51.374;10.662;2024-02-16T07:48:12;96932.47;;;11.16;90.48
72677;BME280;60755;51.374;10.662;2024-02-16T07:50:40;96930.03;;;11.36;90.22
72677;BME280;60755;51.374;10.662;2024-02-16T07:53:07;96924.84;;;11.41;90.20
72677;BME280;60755;51.374;10.662;2024-02-16T07:55:35;96923.63;;;11.54;89.42
72677;BME280;60755;51.374;10.662;2024-02-16T07:58:03;96909.75;;;11.32;89.86
72677;BME280;60755;51.374;10.662;2024-02-16T08:00:30;96915.19;;;11.47;89.90
72677;BME280;60755;51.374;10.662;2024-02-16T08:02:58;96911.69;;;11.41;90.28
72677;BME280;60755;51.374;10.662;2024-02-16T08:05:26;96906.78;;;11.50;90.04
72677;BME280;60755;51.374;10.662;2024-02-16T08:07:54;96919.38;;;11.48;89.33
72677;BME280;60755;51.374;10.662;2024-02-16T08:10:21;96935.34;;;11.63;89.96
72677;BME280;60755;51.374;10.662;2024-02-16T08:12:49;96944.25;;;11.62;88.86
72677;BME280;60755;51.374;10.662;2024-02-16T08:15:16;96960.28;;;11.61;89.04
72677;BME280;60755;51.374;10.662;2024-02-16T08:17:49;96961.53;;;12.39;85.96
72677;BME280;60755;51.374;10.662;2024-02-16T08:20:16;96958.00;;;12.23;87.22
72677;BME280;60755;51.374;10.662;2024-02-16T08:22:45;96975.00;;;12.11;86.92
72677;BME280;60755;51.374;10.662;2024-02-16T08:25:12;96979.34;;;12.22;87.25
72677;BME280;60755;51.374;10.662;2024-02-16T08:27:40;96956.28;;;12.81;83.95
72677;BME280;60755;51.374;10.662;2024-02-16T08:30:07;96955.56;;;12.96;83.66
72677;BME280;60755;51.374;10.662;2024-02-16T08:32:35;96959.38;;;12.68;85.25
72677;BME280;60755;51.374;10.662;2024-02-16T08:35:03;96959.88;;;13.18;83.94
72677;BME280;60755;51.374;10.662;2024-02-16T08:37:30;96972.09;;;12.76;84.56
72677;BME280;60755;51.374;10.662;2024-02-16T08:39:59;96969.09;;;13.15;83.04
72677;BME280;60755;51.374;10.662;2024-02-16T08:42:26;96953.41;;;13.46;81.49
72677;BME280;60755;51.374;10.662;2024-02-16T08:44:53;96960.88;;;13.06;83.67
72677;BME280;60755;51.374;10.662;2024-02-16T08:47:20;96955.00;;;13.41;82.74
72677;BME280;60755;51.374;10.662;2024-02-16T08:49:48;96963.19;;;13.55;80.94
72677;BME280;60755;51.374;10.662;2024-02-16T08:52:15;96971.38;;;13.49;82.04
72677;BME280;60755;51.374;10.662;2024-02-16T08:54:42;96973.50;;;13.62;80.61
72677;BME280;60755;51.374;10.662;2024-02-16T08:57:11;96969.91;;;13.15;83.41
72677;BME280;60755;51.374;10.662;2024-02-16T08:59:39;96972.16;;;13.44;81.97
72677;BME280;60755;51.374;10.662;2024-02-16T09:02:06;96966.13;;;13.59;79.73
72677;BME280;60755;51.374;10.662;2024-02-16T09:04:34;96970.09;;;13.66;80.42
72677;BME280;60755;51.374;10.662;2024-02-16T09:07:01;96977.28;;;13.81;78.48
72677;BME280;60755;51.374;10.662;2024-02-16T09:09:29;96963.50;;;13.79;79.12
72677;BME280;60755;51.374;10.662;2024-02-16T09:11:57;96967.72;;;13.65;81.03
72677;BME280;60755;51.374;10.662;2024-02-16T09:14:25;96972.78;;;13.71;80.40
72677;BME280;60755;51.374;10.662;2024-02-16T09:16:52;96974.00;;;13.43;81.18
72677;BME280;60755;51.374;10.662;2024-02-16T09:19:20;96979.88;;;13.71;79.76
72677;BME280;60755;51.374;10.662;2024-02-16T09:21:48;96975.19;;;14.09;79.94
72677;BME280;60755;51.374;10.662;2024-02-16T09:24:17;96982.06;;;14.20;78.49
72677;BME280;60755;51.374;10.662;2024-02-16T09:26:44;96986.84;;;14.28;79.43
72677;BME280;60755;51.374;10.662;2024-02-16T09:29:13;96979.94;;;14.17;79.89
72677;BME280;60755;51.374;10.662;2024-02-16T09:31:42;96986.78;;;14.03;78.97
72677;BME280;60755;51.374;10.662;2024-02-16T09:34:09;96991.34;;;14.48;77.08
72677;BME280;60755;51.374;10.662;2024-02-16T09:36:36;96991.34;;;14.48;77.53
72677;BME280;60755;51.374;10.662;2024-02-16T09:39:04;96997.91;;;14.25;77.61
72677;BME280;60755;51.374;10.662;2024-02-16T09:41:34;96999.22;;;14.17;77.90
72677;BME280;60755;51.374;10.662;2024-02-16T09:44:02;96999.56;;;14.46;77.19
72677;BME280;60755;51.374;10.662;2024-02-16T09:46:30;96993.16;;;14.32;78.49
72677;BME280;60755;51.374;10.662;2024-02-16T09:49:01;96995.53;;;14.90;75.63
72677;BME280;60755;51.374;10.662;2024-02-16T09:51:28;97005.78;;;15.11;74.17
72677;BME280;60755;51.374;10.662;2024-02-16T09:53:56;97001.13;;;14.63;77.13
72677;BME280;60755;51.374;10.662;2024-02-16T09:56:23;97003.16;;;15.06;76.29
72677;BME280;60755;51.374;10.662;2024-02-16T09:58:51;97002.81;;;15.33;75.48
72677;BME280;60755;51.374;10.662;2024-02-16T10:01:19;97001.44;;;15.46;74.15
72677;BME280;60755;51.374;10.662;2024-02-16T10:03:47;96995.34;;;15.46;74.63
72677;BME280;60755;51.374;10.662;2024-02-16T10:06:16;97005.63;;;15.62;73.90
72677;BME280;60755;51.374;10.662;2024-02-16T10:08:47;97004.16;;;15.26;75.58
72677;BME280;60755;51.374;10.662;2024-02-16T10:11:14;97012.84;;;15.42;74.99
72677;BME280;60755;51.374;10.662;2024-02-16T10:13:42;97019.50;;;15.34;74.48
72677;BME280;60755;51.374;10.662;2024-02-16T10:16:10;97017.78;;;15.69;73.12
72677;BME280;60755;51.374;10.662;2024-02-16T10:18:38;97022.88;;;15.50;74.73
72677;BME280;60755;51.374;10.662;2024-02-16T10:21:05;97021.38;;;15.93;71.82
72677;BME280;60755;51.374;10.662;2024-02-16T10:23:34;97018.56;;;16.18;71.22
72677;BME280;60755;51.374;10.662;2024-02-16T10:26:02;97017.69;;;15.89;71.63
72677;BME280;60755;51.374;10.662;2024-02-16T10:28:29;97016.03;;;15.38;73.42
72677;BME280;60755;51.374;10.662;2024-02-16T10:30:58;97019.28;;;15.20;73.57
72677;BME280;60755;51.374;10.662;2024-02-16T10:33:27;97015.63;;;15.01;74.66
72677;BME280;60755;51.374;10.662;2024-02-16T10:35:55;97014.78;;;15.16;75.31
72677;BME280;60755;51.374;10.662;2024-02-16T10:38:23;97014.94;;;15.50;72.93
72677;BME280;60755;51.374;10.662;2024-02-16T10:40:53;97012.19;;;15.00;75.78
72677;BME280;60755;51.374;10.662;2024-02-16T10:43:21;97011.66;;;14.88;75.43
72677;BME280;60755;51.374;10.662;2024-02-16T10:45:49;97015.91;;;14.74;76.33
72677;BME280;60755;51.374;10.662;2024-02-16T10:48:18;97010.59;;;14.43;76.03
72677;BME280;60755;51.374;10.662;2024-02-16T10:50:46;97019.38;;;14.69;76.13
72677;BME280;60755;51.374;10.662;2024-02-16T10:53:20;97014.59;;;14.66;76.08
72677;BME280;60755;51.374;10.662;2024-02-16T10:55:49;97025.16;;;14.41;76.48
72677;BME280;60755;51.374;10.662;2024-02-16T10:58:18;97022.81;;;14.54;76.62
72677;BME280;60755;51.374;10.662;2024-02-16T11:00:50;97017.00;;;14.68;76.26
72677;BME280;60755;51.374;10.662;2024-02-16T11:03:21;97015.09;;;14.83;75.24
72677;BME280;60755;51.374;10.662;2024-02-16T11:05:49;97020.41;;;14.94;74.36
72677;BME280;60755;51.374;10.662;2024-02-16T11:08:17;97009.56;;;14.60;75.78
72677;BME280;60755;51.374;10.662;2024-02-16T11:10:55;97011.19;;;14.61;76.36
72677;BME280;60755;51.374;10.662;2024-02-16T11:13:25;97013.28;;;14.48;76.59
72677;BME280;60755;51.374;10.662;2024-02-16T11:15:59;97018.59;;;14.53;76.33
72677;BME280;60755;51.374;10.662;2024-02-16T11:18:27;97019.31;;;15.05;74.80
72677;BME280;60755;51.374;10.662;2024-02-16T11:20:55;97017.38;;;15.36;74.65
72677;BME280;60755;51.374;10.662;2024-02-16T11:23:27;97016.34;;;15.22;76.40
72677;BME280;60755;51.374;10.662;2024-02-16T11:26:00;97019.47;;;15.39;73.21
72677;BME280;60755;51.374;10.662;2024-02-16T11:28:30;97016.38;;;15.11;73.76
72677;BME280;60755;51.374;10.662;2024-02-16T11:30:58;97010.28;;;15.16;75.61
72677;BME280;60755;51.374;10.662;2024-02-16T11:33:26;97008.34;;;15.37;74.24
72677;BME280;60755;51.374;10.662;2024-02-16T11:35:54;97006.31;;;15.14;76.18
72677;BME280;60755;51.374;10.662;2024-02-16T11:38:22;97005.19;;;15.35;74.25
72677;BME280;60755;51.374;10.662;2024-02-16T11:40:56;96997.03;;;15.26;75.00
72677;BME280;60755;51.374;10.662;2024-02-16T11:43:24;96992.22;;;15.33;75.21
72677;BME280;60755;51.374;10.662;2024-02-16T11:45:53;96986.59;;;15.50;75.05
72677;BME280;60755;51.374;10.662;2024-02-16T11:48:21;96991.78;;;15.76;73.33
72677;BME280;60755;51.374;10.662;2024-02-16T11:50:50;96989.50;;;16.03;73.35
72677;BME280;60755;51.374;10.662;2024-02-16T11:53:25;96990.97;;;15.80;73.13
72677;BME280;60755;51.374;10.662;2024-02-16T11:55:52;96980.09;;;15.82;72.64
72677;BME280;60755;51.374;10.662;2024-02-16T11:58:20;96990.25;;;15.59;73.51
72677;BME280;60755;51.374;10.662;2024-02-16T12:00:48;96992.19;;;15.98;72.20
72677;BME280;60755;51.374;10.662;2024-02-16T12:03:22;96982.69;;;16.26;70.81
72677;BME280;60755;51.374;10.662;2024-02-16T12:05:50;96984.13;;;16.13;70.71
72677;BME280;60755;51.374;10.662;2024-02-16T12:08:18;96978.28;;;16.11;70.23
72677;BME280;60755;51.374;10.662;2024-02-16T12:10:46;96985.41;;;15.77;70.08
72677;BME280;60755;51.374;10.662;2024-02-16T12:13:15;96987.28;;;15.76;71.92
72677;BME280;60755;51.374;10.662;2024-02-16T12:15:43;96981.63;;;15.88;71.71
72677;BME280;60755;51.374;10.662;2024-02-16T12:18:21;96984.94;;;16.14;69.71
72677;BME280;60755;51.374;10.662;2024-02-16T12:21:10;96982.38;;;16.33;69.68
72677;BME280;60755;51.374;10.662;2024-02-16T12:23:37;96980.50;;;16.04;71.48
72677;BME280;60755;51.374;10.662;2024-02-16T12:26:04;96988.06;;;16.50;69.75
72677;BME280;60755;51.374;10.662;2024-02-16T12:28:31;96991.09;;;16.67;69.64
72677;BME280;60755;51.374;10.662;2024-02-16T12:30:59;96992.53;;;16.26;70.53
72677;BME280;60755;51.374;10.662;2024-02-16T12:33:28;96992.91;;;16.09;70.01
72677;BME280;60755;51.374;10.662;2024-02-16T12:35:55;96997.03;;;16.25;70.28
72677;BME280;60755;51.374;10.662;2024-02-16T12:38:22;96994.84;;;15.98;71.54
72677;BME280;60755;51.374;10.662;2024-02-16T12:40:49;96998.69;;;16.16;70.63
72677;BME280;60755;51.374;10.662;2024-02-16T12:43:17;97002.31;;;15.91;70.80
72677;BME280;60755;51.374;10.662;2024-02-16T12:45:45;96999.16;;;15.89;71.07
72677;BME280;60755;51.374;10.662;2024-02-16T12:48:13;96997.34;;;16.18;70.29
72677;BME280;60755;51.374;10.662;2024-02-16T12:50:41;96988.66;;;16.13;69.62
72677;BME280;60755;51.374;10.662;2024-02-16T12:53:09;96988.00;;;15.87;70.66
72677;BME280;60755;51.374;10.662;2024-02-16T12:55:36;96995.88;;;16.02;70.61
72677;BME280;60755;51.374;10.662;2024-02-16T12:58:03;96993.78;;;16.33;69.57
72677;BME280;60755;51.374;10.662;2024-02-16T13:00:30;96994.88;;;16.27;70.02